Observations for LEEDS AND BRADFORD, United Kingdom (EGNM)

EGNM 170050Z 27007KT CAVOK 13/08 Q1016  
EGNM 170020Z 27007KT CAVOK 13/07 Q1017  
EGNM 162350Z 27006KT CAVOK 14/07 Q1017  
EGNM 162320Z 27007KT CAVOK 15/07 Q1017  
EGNM 162250Z 27008KT CAVOK 15/07 Q1017  
EGNM 162150Z 29009KT CAVOK 15/08 Q1017  
EGNM 162120Z 29008KT CAVOK 16/09 Q1017  
EGNM 162050Z 28010KT CAVOK 17/10 Q1017  
EGNM 162020Z 27009KT CAVOK 18/10 Q1017  
EGNM 161950Z 28010KT CAVOK 18/10 Q1017  
EGNM 161920Z 29010KT CAVOK 19/10 Q1017  
EGNM 161850Z 28009KT 250V320 CAVOK 20/11 Q1017  
EGNM 161820Z 27009KT CAVOK 20/11 Q1017  
EGNM 161750Z 29010KT 260V320 CAVOK 21/11 Q1017  
EGNM 161720Z 28011KT 240V320 9999 FEW047 21/11 Q1017
EGNM 161650Z 29011KT 250V320 9999 FEW048 22/11 Q1017
EGNM 161620Z 28013KT 250V320 9999 FEW047 22/11 Q1017
EGNM 161550Z 29012KT 9999 FEW045 22/11 Q1017
EGNM 161520Z 30012KT 270V330 9999 FEW045 23/12 Q1017
EGNM 161450Z 30009KT 250V360 9999 FEW048 22/11 Q1018
EGNM 161420Z 27010KT 240V310 9999 FEW044TCU 23/11 Q1018 
EGNM 161320Z 25007KT 200V290 9999 FEW036 21/11 Q1018
EGNM 161250Z 26007KT 220V310 9999 FEW040 21/12 Q1018
EGNM 161220Z 27008KT 220V330 9999 FEW036 22/13 Q1018
EGNM 161150Z 27010KT 240V310 9999 FEW032 21/12 Q1018
EGNM 161120Z 27009KT 230V320 9999 FEW025 20/12 Q1019
EGNM 161050Z 27010KT 9999 FEW025 20/12 Q1019
EGNM 161020Z 24006KT 200V280 9999 FEW024 20/12 Q1019
EGNM 160950Z 26008KT 230V290 9999 FEW024 19/12 Q1019
EGNM 160920Z 27007KT 230V310 9999 FEW024 19/13 Q1019
EGNM 160850Z 26008KT 230V290 CAVOK 19/13 Q1019  
EGNM 160820Z 26008KT 230V300 CAVOK 18/13 Q1019  
EGNM 160750Z 27006KT CAVOK 17/13 Q1019  
EGNM 160720Z 26006KT 230V290 CAVOK 17/13 Q1019  
EGNM 160650Z 26009KT CAVOK 16/12 Q1019  
EGNM 160620Z 27010KT CAVOK 16/12 Q1019  
EGNM 160550Z 27008KT 240V300 CAVOK 15/12 Q1019  
EGNM 160520Z 28006KT CAVOK 14/12 Q1019  
EGNM 160450Z 27004KT CAVOK 13/11 Q1019  
EGNM 160420Z 25007KT CAVOK 12/10 Q1019  
EGNM 160350Z 24004KT CAVOK 13/10 Q1019  
EGNM 160320Z 28005KT CAVOK 12/10 Q1019  
EGNM 160250Z 27004KT CAVOK 13/10 Q1019  
EGNM 160220Z 30003KT CAVOK 13/11 Q1019  
EGNM 160150Z 27004KT CAVOK 13/11 Q1020  
EGNM 160120Z 28002KT CAVOK 14/12 Q1020  
EGNM 160050Z 28002KT CAVOK 14/11 Q1020